Time;durP1;ratioP1;P1;durP2;ratioP2;P2;SDS_P1;SDS_P2;PMS_P1;PMS_P2;Temp;Humidity;BMP_temperature;BMP_pressure;BME280_temperature;BME280_humidity;BME280_pressure;Samples;Min_cycle;Max_cycle;Signal;HPM_P1;HPM_P2
2022/05/14 00:01:42;;;;;;;19.27;11.23;;;;;;;11.91;94.65;101520.00;5031131;28;20443;-50
2022/05/14 00:04:10;;;;;;;26.27;12.00;;;;;;;11.87;94.94;101524.06;5031385;28;20436;-46
2022/05/14 00:06:38;;;;;;;24.50;12.70;;;;;;;11.84;95.44;101521.75;5031096;28;20869;-51
2022/05/14 00:09:07;;;;;;;26.53;13.20;;;;;;;11.85;95.77;101515.41;5032889;28;20798;-49
2022/05/14 00:14:22;;;;;;;22.47;11.87;;;;;;;11.85;95.67;101507.38;5035283;28;20438;-51
2022/05/14 00:16:50;;;;;;;26.03;12.97;;;;;;;11.85;95.89;101512.75;5034479;28;20502;-46
2022/05/14 00:19:18;;;;;;;23.90;11.87;;;;;;;11.84;95.99;101514.56;5035084;28;20444;-51
2022/05/14 00:21:45;;;;;;;31.40;11.80;;;;;;;11.84;95.96;101506.56;5035033;28;20439;-46
2022/05/14 00:24:14;;;;;;;22.80;12.10;;;;;;;11.86;95.85;101509.88;5035002;28;20479;-47
2022/05/14 00:26:42;;;;;;;22.57;10.80;;;;;;;11.87;96.11;101506.19;5034615;28;20460;-51
2022/05/14 00:29:10;;;;;;;19.27;11.17;;;;;;;11.88;95.94;101505.19;5034924;28;20446;-46
2022/05/14 00:31:38;;;;;;;14.50;11.60;;;;;;;11.91;96.02;101509.31;5034780;28;20478;-47
2022/05/14 00:34:05;;;;;;;24.33;11.90;;;;;;;11.91;95.91;101507.47;5035252;28;20454;-47
2022/05/14 00:36:34;;;;;;;17.60;11.67;;;;;;;11.92;96.00;101508.28;5034381;28;20463;-48
2022/05/14 00:39:02;;;;;;;23.07;11.73;;;;;;;11.96;95.60;101506.91;5034806;28;20451;-51
2022/05/14 00:41:32;;;;;;;24.03;13.03;;;;;;;11.94;95.47;101509.78;5034432;28;20434;-47
2022/05/14 00:44:01;;;;;;;25.10;12.20;;;;;;;11.96;95.94;101502.41;5034792;28;20452;-48
2022/05/14 00:46:44;;;;;;;21.37;11.20;;;;;;;11.97;95.54;101495.22;5034023;28;20467;-47
2022/05/14 00:49:12;;;;;;;30.30;12.47;;;;;;;11.98;95.41;101505.69;5034801;28;20520;-50
2022/05/14 00:51:44;;;;;;;19.70;10.70;;;;;;;11.99;95.52;101503.84;5034496;28;20435;-46
2022/05/14 00:54:15;;;;;;;19.83;10.40;;;;;;;12.02;95.41;101508.84;5034344;28;20455;-47
2022/05/14 00:56:48;;;;;;;27.83;11.50;;;;;;;12.03;94.83;101510.50;5034060;28;20460;-49
2022/05/14 00:59:18;;;;;;;26.23;11.83;;;;;;;12.04;94.39;101502.28;5034489;28;20474;-51
2022/05/14 01:01:48;;;;;;;27.27;11.93;;;;;;;12.06;94.01;101516.31;5034263;28;20444;-50
2022/05/14 01:04:16;;;;;;;22.10;10.53;;;;;;;12.08;93.96;101500.06;5034200;28;21024;-50
2022/05/14 01:06:49;;;;;;;17.70;11.73;;;;;;;12.10;93.57;101503.38;5031995;28;20923;-48
2022/05/14 01:09:17;;;;;;;17.63;10.67;;;;;;;12.11;93.13;101502.34;5031768;28;20436;-49
2022/05/14 01:11:49;;;;;;;22.27;11.73;;;;;;;12.14;92.81;101499.31;5031348;28;20440;-45
2022/05/14 01:14:17;;;;;;;23.60;11.00;;;;;;;12.14;92.86;101507.34;5033722;28;20432;-47
2022/05/14 01:16:45;;;;;;;18.60;10.57;;;;;;;12.17;92.94;101506.97;5033376;28;20527;-49
2022/05/14 01:19:13;;;;;;;16.60;10.50;;;;;;;12.17;92.75;101504.28;5033778;28;20436;-45
2022/05/14 01:21:48;;;;;;;22.77;12.07;;;;;;;12.19;92.58;101499.56;5033762;28;20813;-49
2022/05/14 01:27:13;;;;;;;14.20;9.70;;;;;;;12.21;92.50;101493.00;5033312;28;20476;-47
2022/05/14 01:29:42;;;;;;;24.47;11.70;;;;;;;12.23;92.40;101484.81;5033725;28;20447;-47
2022/05/14 01:32:09;;;;;;;22.03;10.43;;;;;;;12.23;92.24;101492.00;5033768;28;20436;-45
2022/05/14 01:34:37;;;;;;;23.70;12.40;;;;;;;12.26;91.80;101492.47;5033984;28;20434;-45
2022/05/14 01:37:05;;;;;;;18.87;11.57;;;;;;;12.26;92.37;101486.28;5033319;28;20460;-47
2022/05/14 01:39:33;;;;;;;19.97;10.67;;;;;;;12.26;92.21;101497.81;5033695;28;20433;-49
2022/05/14 01:42:01;;;;;;;19.47;10.77;;;;;;;12.26;92.21;101491.63;5033188;28;20436;-45
2022/05/14 01:44:30;;;;;;;19.43;12.30;;;;;;;12.26;92.20;101492.47;5033598;28;20472;-47
2022/05/14 01:46:57;;;;;;;26.70;12.83;;;;;;;12.25;92.49;101489.97;5032809;28;20468;-45
2022/05/14 01:49:25;;;;;;;21.73;11.50;;;;;;;12.26;92.38;101487.09;5033419;28;20435;-47
2022/05/14 01:51:54;;;;;;;25.43;11.43;;;;;;;12.27;92.85;101477.25;5033147;28;20436;-50
2022/05/14 01:54:21;;;;;;;22.20;11.10;;;;;;;12.29;92.51;101483.22;5033579;28;20425;-48
2022/05/14 01:56:49;;;;;;;19.07;10.80;;;;;;;12.30;92.69;101490.25;5032574;28;20615;-48
2022/05/14 01:59:17;;;;;;;17.80;11.90;;;;;;;12.31;92.31;101483.84;5033287;28;20435;-50
2022/05/14 02:01:46;;;;;;;27.07;11.57;;;;;;;12.32;92.64;101482.84;5033166;28;20440;-47
2022/05/14 02:04:16;;;;;;;20.37;11.73;;;;;;;12.30;92.66;101485.72;5032916;28;20981;-44
2022/05/14 02:06:44;;;;;;;27.97;11.50;;;;;;;12.30;92.86;101477.69;5032617;28;20472;-48
2022/05/14 02:09:14;;;;;;;20.30;10.13;;;;;;;12.30;92.54;101485.72;5032814;28;20442;-47
2022/05/14 02:11:43;;;;;;;21.10;11.30;;;;;;;12.30;93.03;101496.41;5032866;28;20436;-49
2022/05/14 02:14:12;;;;;;;21.80;10.60;;;;;;;12.32;92.84;101493.53;5032906;28;20428;-47
2022/05/14 02:16:40;;;;;;;30.07;11.10;;;;;;;12.33;92.87;101504.06;5032435;28;21031;-48
2022/05/14 02:19:09;;;;;;;29.17;11.57;;;;;;;12.36;93.00;101489.47;5032921;28;20424;-49
2022/05/14 02:21:37;;;;;;;23.70;11.20;;;;;;;12.36;92.32;101501.00;5032486;28;20956;-47
2022/05/14 02:24:06;;;;;;;25.63;10.90;;;;;;;12.38;92.56;101501.66;5032545;28;20487;-48
2022/05/14 02:26:33;;;;;;;21.63;9.90;;;;;;;12.38;92.24;101492.78;5032298;28;20468;-47
2022/05/14 02:29:01;;;;;;;26.93;10.13;;;;;;;12.37;92.42;101507.16;5032661;28;20432;-47
2022/05/14 02:31:28;;;;;;;21.27;11.17;;;;;;;12.39;92.46;101508.66;5031847;28;20512;-46
2022/05/14 02:33:56;;;;;;;19.10;10.10;;;;;;;12.39;91.95;101495.28;5032487;28;21170;-49
2022/05/14 02:36:25;;;;;;;20.97;10.37;;;;;;;12.40;92.26;101499.59;5031917;28;21015;-49
2022/05/14 02:38:52;;;;;;;27.40;10.87;;;;;;;12.43;92.42;101504.56;5032602;28;20802;-49
2022/05/14 02:41:20;;;;;;;23.90;10.60;;;;;;;12.44;92.42;101505.41;5032487;28;20447;-49
2022/05/14 02:43:48;;;;;;;30.10;11.27;;;;;;;12.43;92.38;101499.22;5032372;28;20476;-49
2022/05/14 02:46:15;;;;;;;25.50;10.83;;;;;;;12.44;92.14;101508.91;5031818;28;20460;-45
2022/05/14 02:48:43;;;;;;;26.03;11.13;;;;;;;12.46;91.84;101509.53;5032196;28;20432;-45
2022/05/14 02:51:11;;;;;;;16.67;10.13;;;;;;;12.46;91.68;101503.34;5032177;28;20436;-47
2022/05/14 02:53:40;;;;;;;30.63;12.07;;;;;;;12.47;91.59;101511.19;5032360;28;20438;-45
2022/05/14 02:56:08;;;;;;;25.07;10.60;;;;;;;12.46;91.30;101506.03;5031851;28;20452;-48
2022/05/14 03:01:20;;;;;;;21.63;10.60;;;;;;;12.44;91.50;101522.28;5031741;28;20436;-44
2022/05/14 03:03:48;;;;;;;23.87;11.17;;;;;;;12.45;91.49;101515.94;5032206;28;20884;-46
2022/05/14 03:06:16;;;;;;;26.90;11.30;;;;;;;12.46;91.76;101517.56;5031583;28;20500;-50
2022/05/14 03:08:45;;;;;;;21.80;11.70;;;;;;;12.44;91.74;101522.28;5032357;28;20432;-45
2022/05/14 03:11:12;;;;;;;14.13;9.40;;;;;;;12.45;91.99;101526.63;5031803;28;20436;-47
2022/05/14 03:13:40;;;;;;;31.77;12.93;;;;;;;12.44;91.61;101532.16;5031839;28;20432;-45
2022/05/14 03:16:07;;;;;;;28.63;11.73;;;;;;;12.42;91.95;101542.22;5031286;28;20463;-49
2022/05/14 03:18:35;;;;;;;37.40;12.93;;;;;;;12.45;91.75;101534.66;5032023;28;20431;-49
2022/05/14 03:21:03;;;;;;;30.60;13.30;;;;;;;12.46;91.88;101536.28;5031749;28;20442;-46
2022/05/14 03:23:31;;;;;;;24.53;11.50;;;;;;;12.47;91.87;101545.16;5031809;28;20531;-45
2022/05/14 03:26:00;;;;;;;29.47;11.10;;;;;;;12.46;91.96;101544.31;5031206;28;20479;-47
2022/05/14 03:28:27;;;;;;;29.27;10.57;;;;;;;12.46;92.06;101530.94;5031613;28;20432;-44
2022/05/14 03:30:56;;;;;;;19.40;9.93;;;;;;;12.43;92.05;101552.72;5031715;28;20793;-45
2022/05/14 03:33:24;;;;;;;33.43;11.53;;;;;;;12.44;92.05;101545.53;5031895;28;20438;-48
2022/05/14 03:35:52;;;;;;;26.50;11.00;;;;;;;12.43;91.94;101554.56;5031313;28;20454;-45
2022/05/14 03:38:20;;;;;;;23.10;11.47;;;;;;;12.44;91.77;101551.72;5031808;28;20436;-45
2022/05/14 03:40:47;;;;;;;30.83;11.90;;;;;;;12.43;91.70;101547.38;5031296;28;20463;-50
2022/05/14 03:43:16;;;;;;;18.13;11.00;;;;;;;12.41;91.97;101546.72;5031572;28;21248;-45
2022/05/14 03:45:44;;;;;;;24.87;10.80;;;;;;;12.43;91.74;101563.41;5035583;28;20472;-45
2022/05/14 03:48:12;;;;;;;20.10;10.80;;;;;;;12.44;91.68;101561.56;5035276;28;20444;-45
2022/05/14 03:50:39;;;;;;;25.03;11.77;;;;;;;12.46;91.65;101562.19;5035498;28;20432;-46
2022/05/14 03:53:07;;;;;;;31.57;11.30;;;;;;;12.47;91.58;101571.91;5035619;28;20435;-46
2022/05/14 03:55:35;;;;;;;18.30;10.70;;;;;;;12.49;91.93;101572.53;5035289;28;20436;-44
2022/05/14 03:58:03;;;;;;;23.90;10.73;;;;;;;12.49;91.51;101564.50;5035048;28;20841;-45
2022/05/14 04:00:32;;;;;;;28.83;10.93;;;;;;;12.49;91.91;101573.38;5035356;28;20468;-47
2022/05/14 04:02:59;;;;;;;21.00;9.87;;;;;;;12.51;91.88;101576.69;5035365;28;20440;-44
2022/05/14 04:05:27;;;;;;;25.70;10.20;;;;;;;12.52;91.67;101574.81;5035292;28;20476;-45
2022/05/14 04:07:55;;;;;;;24.63;10.77;;;;;;;12.52;91.57;101575.66;5034907;28;20833;-46
2022/05/14 04:10:23;;;;;;;19.77;10.20;;;;;;;12.54;91.64;101587.03;5035281;28;20432;-47
2022/05/14 04:12:50;;;;;;;23.70;10.60;;;;;;;12.56;91.84;101579.63;5035344;28;20436;-44
2022/05/14 04:15:18;;;;;;;21.63;10.67;;;;;;;12.59;91.77;101581.09;5035317;28;20430;-44
2022/05/14 04:17:47;;;;;;;30.60;11.10;;;;;;;12.59;91.75;101579.25;5034559;28;20474;-46
2022/05/14 04:20:14;;;;;;;26.73;11.23;;;;;;;12.61;91.37;101584.41;5034838;28;20444;-44
2022/05/14 04:22:46;;;;;;;32.00;11.07;;;;;;;12.61;91.09;101587.91;5035292;28;20444;-42
2022/05/14 04:25:14;;;;;;;32.83;10.90;;;;;;;12.61;91.41;101582.56;5035003;28;20482;-47
2022/05/14 04:27:44;;;;;;;22.50;10.90;;;;;;;12.63;91.15;101591.22;5034666;28;20475;-48
2022/05/14 04:30:14;;;;;;;32.63;11.57;;;;;;;12.62;91.77;101596.75;5034646;28;20447;-45
2022/05/14 04:32:42;;;;;;;20.33;11.10;;;;;;;12.68;91.81;101596.00;5034881;28;20436;-47
2022/05/14 04:35:13;;;;;;;28.53;10.53;;;;;;;12.70;91.55;101600.16;5034595;28;20428;-50
2022/05/14 04:37:41;;;;;;;35.90;11.73;;;;;;;12.76;91.86;101596.72;5034300;28;20472;-46
2022/05/14 04:40:11;;;;;;;27.00;11.40;;;;;;;12.76;91.28;101607.41;5034767;28;20796;-45
2022/05/14 04:42:39;;;;;;;16.27;10.03;;;;;;;12.82;91.24;101602.31;5034726;28;20440;-50
2022/05/14 04:45:09;;;;;;;29.33;12.30;;;;;;;12.87;91.43;101600.75;5034475;28;20902;-51
2022/05/14 04:47:40;;;;;;;30.27;11.90;;;;;;;12.85;90.93;101616.16;5033918;28;20530;-45
2022/05/14 04:50:09;;;;;;;21.77;11.23;;;;;;;12.89;90.99;101614.78;5034721;28;20515;-51
2022/05/14 04:52:38;;;;;;;33.97;12.77;;;;;;;12.89;91.28;101613.94;5034548;28;20436;-50
2022/05/14 04:55:07;;;;;;;25.07;12.20;;;;;;;12.95;91.56;101619.38;5033899;28;20439;-47
2022/05/14 04:57:35;;;;;;;24.67;11.80;;;;;;;12.97;90.94;101617.31;5034091;28;20471;-46
2022/05/14 05:00:04;;;;;;;23.67;10.20;;;;;;;13.06;91.15;101621.53;5034376;28;20428;-45
2022/05/14 05:05:17;;;;;;;23.97;10.10;;;;;;;13.13;90.67;101624.31;5034172;28;20475;-48
2022/05/14 05:07:47;;;;;;;24.30;10.47;;;;;;;13.21;90.74;101624.16;5033676;28;20475;-45
2022/05/14 05:10:15;;;;;;;25.37;11.87;;;;;;;13.30;90.28;101626.53;5033947;28;20439;-50
2022/05/14 05:12:43;;;;;;;21.87;10.93;;;;;;;13.40;89.82;101628.88;5033927;28;20960;-47
2022/05/14 05:15:11;;;;;;;28.60;11.80;;;;;;;13.40;88.19;101631.56;5034192;28;20439;-45
2022/05/14 05:17:39;;;;;;;22.07;10.63;;;;;;;13.45;87.99;101631.78;5033145;28;20888;-44
2022/05/14 05:20:09;;;;;;;28.07;12.57;;;;;;;13.53;87.99;101636.19;5033925;28;20432;-44
2022/05/14 05:22:37;;;;;;;30.90;11.77;;;;;;;13.66;87.71;101634.44;5033888;28;20443;-46
2022/05/14 05:25:08;;;;;;;30.30;11.10;;;;;;;13.90;88.05;101637.69;5033456;28;20844;-50
2022/05/14 05:27:36;;;;;;;16.63;10.40;;;;;;;13.92;85.87;101641.03;5033251;28;20468;-49
2022/05/14 05:30:05;;;;;;;24.57;10.50;;;;;;;13.83;84.74;101646.50;5033861;28;20436;-45
2022/05/14 05:32:32;;;;;;;24.70;11.33;;;;;;;13.95;85.18;101643.31;5033435;28;20460;-51
2022/05/14 05:35:00;;;;;;;25.23;11.50;;;;;;;14.07;85.05;101647.91;5033512;28;20804;-45
2022/05/14 05:37:27;;;;;;;24.60;11.20;;;;;;;14.28;84.87;101653.19;5033132;28;20472;-49
2022/05/14 05:39:55;;;;;;;23.37;11.30;;;;;;;14.32;83.33;101664.34;5033414;28;20953;-43
2022/05/14 05:42:24;;;;;;;31.87;12.27;;;;;;;14.39;83.13;101659.88;5033064;28;20934;-46
2022/05/14 05:44:52;;;;;;;29.60;11.53;;;;;;;14.43;81.81;101660.28;5033565;28;20428;-47
2022/05/14 05:47:19;;;;;;;29.17;11.87;;;;;;;14.42;81.05;101669.41;5032683;28;20464;-44
2022/05/14 05:49:47;;;;;;;21.13;10.40;;;;;;;14.02;82.90;101666.44;5033051;28;20432;-45
2022/05/14 05:52:15;;;;;;;24.87;11.80;;;;;;;14.20;83.73;101664.09;5033030;28;20444;-47
2022/05/14 05:57:35;;;;;;;24.83;11.33;;;;;;;14.51;81.18;101679.75;5032548;28;21015;-48
2022/05/14 06:00:05;;;;;;;25.60;11.13;;;;;;;14.75;81.74;101673.88;5033008;28;20427;-49
2022/05/14 06:02:33;;;;;;;38.73;12.70;;;;;;;14.86;80.51;101675.97;5032896;28;20444;-47
2022/05/14 06:05:01;;;;;;;30.97;11.50;;;;;;;15.21;80.21;101675.84;5032721;28;20926;-47
2022/05/14 06:07:29;;;;;;;22.63;11.23;;;;;;;15.32;76.94;101684.13;5031664;28;20464;-49
2022/05/14 06:09:57;;;;;;;25.93;11.53;;;;;;;15.12;77.03;101675.19;5033056;28;20428;-47
2022/05/14 06:12:25;;;;;;;24.23;11.63;;;;;;;15.47;77.48;101681.31;5032602;28;20447;-43
2022/05/14 06:14:54;;;;;;;24.63;11.67;;;;;;;15.85;74.83;101682.31;5032185;28;20439;-45
2022/05/14 06:17:21;;;;;;;23.00;11.37;;;;;;;16.07;74.47;101695.56;5032195;28;20478;-47
2022/05/14 06:19:49;;;;;;;26.30;10.80;;;;;;;15.98;71.84;101695.75;5032917;28;20531;-43
2022/05/14 06:22:16;;;;;;;21.83;10.77;;;;;;;16.08;72.60;101695.31;5032158;28;20439;-45
2022/05/14 06:24:44;;;;;;;24.77;10.83;;;;;;;16.11;72.63;101707.53;5032727;28;20440;-47
2022/05/14 06:27:12;;;;;;;24.20;11.17;;;;;;;16.18;72.57;101705.66;5031704;28;20464;-45
2022/05/14 06:29:39;;;;;;;21.47;10.90;;;;;;;16.31;71.64;101717.22;5032231;28;20435;-44
2022/05/14 06:32:08;;;;;;;27.17;11.33;;;;;;;16.70;71.58;101707.38;5030097;28;20436;-46
2022/05/14 06:34:36;;;;;;;20.43;9.90;;;;;;;17.45;69.63;101698.47;5032290;28;20432;-46
2022/05/14 06:37:04;;;;;;;27.57;11.40;;;;;;;18.27;69.17;101698.19;5031538;28;20558;-46
2022/05/14 06:39:32;;;;;;;24.80;12.00;;;;;;;18.91;65.26;101703.06;5031828;28;20428;-44
2022/05/14 06:41:59;;;;;;;27.83;11.27;;;;;;;20.12;60.91;101706.19;5031583;28;20442;-44
2022/05/14 06:44:27;;;;;;;19.43;11.00;;;;;;;20.89;56.99;101709.47;5032120;28;20442;-47
2022/05/14 06:46:55;;;;;;;20.90;10.60;;;;;;;21.18;53.21;101704.91;5031495;28;20468;-44
2022/05/14 06:49:24;;;;;;;20.60;10.83;;;;;;;21.40;55.29;101714.81;5007652;28;20491;-44
2022/05/14 06:51:52;;;;;;;21.03;10.00;;;;;;;21.49;52.54;101710.63;5032091;28;20431;-48
2022/05/14 06:54:21;;;;;;;19.70;9.73;;;;;;;20.40;53.07;101717.13;5031897;28;20787;-45
2022/05/14 06:56:49;;;;;;;24.13;11.07;;;;;;;19.69;54.86;101719.22;5031535;28;20448;-46
2022/05/14 06:59:17;;;;;;;19.83;12.00;;;;;;;19.10;57.01;101736.28;5031636;28;20438;-48
2022/05/14 07:01:47;;;;;;;21.30;10.50;;;;;;;19.24;58.93;101722.34;5031465;28;20439;-43
2022/05/14 07:07:05;;;;;;;19.77;11.23;;;;;;;19.01;58.86;101730.38;5030344;28;20486;-43
2022/05/14 07:09:34;;;;;;;21.00;11.33;;;;;;;19.18;58.24;101720.56;5031524;28;20478;-43
2022/05/14 07:12:05;;;;;;;25.37;11.60;;;;;;;19.44;56.83;101726.69;5031575;28;20432;-48
2022/05/14 07:14:33;;;;;;;22.17;11.53;;;;;;;19.67;57.55;101721.34;5031894;28;20979;-47
2022/05/14 07:17:01;;;;;;;31.97;10.90;;;;;;;19.56;57.25;101725.66;5032018;28;20455;-44
2022/05/14 07:19:28;;;;;;;21.60;9.83;;;;;;;20.15;56.92;101732.78;5030999;28;20456;-46
2022/05/14 07:21:56;;;;;;;24.00;10.57;;;;;;;20.55;53.96;101719.34;5031638;28;20446;-51
2022/05/14 07:24:28;;;;;;;18.13;10.40;;;;;;;20.31;53.16;101723.97;5031940;28;20440;-43
2022/05/14 07:26:58;;;;;;;19.53;11.03;;;;;;;20.14;55.06;101733.03;5030902;28;20481;-49
2022/05/14 07:29:27;;;;;;;20.20;9.43;;;;;;;20.78;54.44;101737.47;5031277;28;20932;-44
2022/05/14 07:31:55;;;;;;;13.73;9.13;;;;;;;21.44;52.37;101732.25;5031634;28;20891;-43
2022/05/14 07:34:24;;;;;;;17.17;9.03;;;;;;;21.70;51.82;101735.41;5031649;28;20485;-43
2022/05/14 07:36:58;;;;;;;14.13;8.63;;;;;;;22.22;51.10;101736.00;5031784;28;20448;-45
2022/05/14 07:39:30;;;;;;;17.97;9.90;;;;;;;22.18;49.91;101735.66;5031610;28;20460;-43
2022/05/14 07:42:01;;;;;;;15.60;9.23;;;;;;;21.73;49.75;101741.19;5031510;28;20430;-44
2022/05/14 07:44:36;;;;;;;15.70;9.20;;;;;;;21.02;49.97;101754.47;5031776;28;20408;-47
2022/05/14 07:47:04;;;;;;;21.13;9.13;;;;;;;20.62;52.73;101765.28;5031485;28;20471;-46
2022/05/14 07:49:32;;;;;;;18.33;9.53;;;;;;;20.01;52.45;101760.34;5031072;28;20460;-44
2022/05/14 07:52:00;;;;;;;17.80;11.90;;;;;;;19.22;54.90;101756.94;5031243;28;20436;-44
2022/05/14 07:54:29;;;;;;;19.83;11.20;;;;;;;18.75;57.49;101765.84;5031718;28;20432;-44
2022/05/14 07:56:58;;;;;;;21.40;11.63;;;;;;;18.35;57.20;101760.00;5031317;28;20969;-46
2022/05/14 07:59:26;;;;;;;24.63;10.53;;;;;;;18.33;58.67;101763.97;5030999;28;20460;-43
2022/05/14 08:01:54;;;;;;;18.60;10.30;;;;;;;18.25;58.89;101757.81;5031364;28;20442;-44
2022/05/14 08:04:22;;;;;;;15.73;9.77;;;;;;;18.05;59.70;101759.03;5031499;28;20435;-44
2022/05/14 08:06:49;;;;;;;19.03;10.43;;;;;;;17.59;60.59;101760.22;5031045;28;20486;-45
2022/05/14 08:09:17;;;;;;;30.50;13.00;;;;;;;17.49;62.26;101767.94;5028857;28;20498;-45
2022/05/14 08:11:46;;;;;;;22.03;11.47;;;;;;;18.07;61.52;101768.56;5030416;28;20435;-46
2022/05/14 08:14:13;;;;;;;25.37;9.77;;;;;;;18.86;60.12;101775.06;5029753;28;20435;-45
2022/05/14 08:16:41;;;;;;;22.77;10.33;;;;;;;19.42;58.16;101772.06;5030174;28;20455;-45
2022/05/14 08:19:09;;;;;;;21.27;10.17;;;;;;;19.26;55.85;101773.53;5010496;28;20439;-43
2022/05/14 08:24:30;;;;;;;16.83;9.50;;;;;;;19.77;55.20;101763.00;5028984;28;20428;-43
2022/05/14 08:27:04;;;;;;;16.23;9.20;;;;;;;20.20;53.77;101775.41;5029626;28;20840;-48
2022/05/14 08:29:38;;;;;;;13.10;8.70;;;;;;;20.78;52.87;101775.41;5029946;28;20456;-45
2022/05/14 08:32:07;;;;;;;13.73;7.23;;;;;;;21.43;51.08;101776.75;5034223;28;20441;-46
2022/05/14 08:34:34;;;;;;;15.03;8.60;;;;;;;21.22;50.89;101776.59;5032922;28;20435;-45
2022/05/14 08:37:05;;;;;;;20.63;8.97;;;;;;;20.99;51.11;101780.19;5034319;28;20530;-43
2022/05/14 08:39:33;;;;;;;16.67;7.13;;;;;;;20.50;50.28;101769.91;5033774;28;20463;-45
2022/05/14 08:42:02;;;;;;;22.27;9.23;;;;;;;19.68;53.16;101783.31;5034521;28;20435;-48
2022/05/14 08:44:33;;;;;;;17.57;8.60;;;;;;;19.40;53.81;101793.13;5034592;28;20469;-46
2022/05/14 08:47:06;;;;;;;13.73;8.30;;;;;;;19.05;55.40;101788.38;5033997;28;20485;-47
2022/05/14 08:49:36;;;;;;;11.73;7.93;;;;;;;19.43;54.19;101793.50;5034129;28;20463;-45
2022/05/14 08:52:10;;;;;;;13.10;8.03;;;;;;;19.33;54.64;101791.31;5034447;28;20438;-45
2022/05/14 08:54:37;;;;;;;13.53;9.00;;;;;;;19.04;55.40;101792.09;5034319;28;20440;-45
2022/05/14 08:57:18;;;;;;;18.67;8.30;;;;;;;18.84;56.27;101793.41;5034311;28;20491;-45
2022/05/14 08:59:52;;;;;;;20.90;9.63;;;;;;;19.03;56.23;101793.16;5033863;28;20464;-45
2022/05/14 09:02:22;;;;;;;20.20;9.30;;;;;;;19.01;56.17;101797.13;5034191;28;20722;-45
2022/05/14 09:04:50;;;;;;;18.83;8.07;;;;;;;19.13;57.73;101804.25;5034251;28;20526;-45
2022/05/14 09:07:18;;;;;;;17.13;8.90;;;;;;;19.25;55.38;101807.03;5034018;28;20482;-45
2022/05/14 09:09:51;;;;;;;20.93;8.30;;;;;;;19.06;56.04;101814.31;5033654;28;20802;-46
2022/05/14 09:12:24;;;;;;;15.03;8.17;;;;;;;19.13;56.30;101811.53;5034100;28;20428;-45
2022/05/14 09:14:57;;;;;;;16.93;8.10;;;;;;;19.70;55.29;101821.84;5034549;28;20427;-49
2022/05/14 09:17:29;;;;;;;24.10;9.10;;;;;;;19.94;54.87;101824.59;5033668;28;20460;-45
2022/05/14 09:19:58;;;;;;;12.47;7.80;;;;;;;19.77;54.22;101822.53;5033239;28;20975;-47
2022/05/14 09:22:31;;;;;;;12.13;6.90;;;;;;;19.84;53.05;101811.63;5033708;28;20547;-49
2022/05/14 09:25:07;;;;;;;18.07;7.97;;;;;;;19.73;53.64;101817.84;5034040;28;20766;-47
2022/05/14 09:27:45;;;;;;;15.27;8.20;;;;;;;19.91;54.03;101816.94;5033585;28;20532;-46
2022/05/14 09:30:23;;;;;;;15.07;7.07;;;;;;;19.73;53.77;101813.25;5033208;28;20471;-46
2022/05/14 09:32:51;;;;;;;16.57;8.60;;;;;;;19.71;53.45;101826.16;5033575;28;20761;-47
2022/05/14 09:35:22;;;;;;;14.77;7.40;;;;;;;19.17;55.05;101834.38;5033562;28;20444;-46
2022/05/14 09:37:50;;;;;;;14.00;7.43;;;;;;;17.49;58.97;101846.16;5033715;28;20455;-47
2022/05/14 09:40:24;;;;;;;20.57;8.13;;;;;;;18.32;59.96;101841.47;5032871;28;20487;-48
2022/05/14 09:42:55;;;;;;;10.73;7.10;;;;;;;19.10;57.01;101830.94;5033293;28;20518;-49
2022/05/14 09:45:29;;;;;;;14.67;6.97;;;;;;;18.84;54.83;101833.94;5033349;28;20432;-47
2022/05/14 09:48:08;;;;;;;13.80;6.73;;;;;;;18.84;56.90;101834.75;5033442;28;20471;-45
2022/05/14 09:50:36;;;;;;;17.90;7.43;;;;;;;18.02;56.74;101846.69;5012818;28;20464;-46
2022/05/14 09:53:06;;;;;;;13.67;7.70;;;;;;;17.79;59.31;101854.53;5030725;28;20957;-44
2022/05/14 09:56:09;;;;;;;16.47;8.53;;;;;;;17.24;60.38;101863.25;5033165;28;20518;-44
2022/05/14 09:58:47;;;;;;;16.17;7.97;;;;;;;16.94;61.50;101871.03;5032906;28;20430;-52
2022/05/14 10:01:19;;;;;;;14.53;8.10;;;;;;;16.45;64.04;101874.19;5032614;28;20462;-48
2022/05/14 10:04:01;;;;;;;14.77;9.00;;;;;;;16.89;65.33;101873.53;5033210;28;20462;-45
2022/05/14 10:06:35;;;;;;;16.87;9.27;;;;;;;17.50;65.17;101876.66;5032712;28;21016;-51
2022/05/14 10:09:12;;;;;;;23.23;8.43;;;;;;;17.45;60.96;101869.19;5032945;28;20474;-47
2022/05/14 10:11:47;;;;;;;15.83;9.23;;;;;;;17.73;61.92;101878.84;5033007;28;20432;-51
2022/05/14 10:14:28;;;;;;;19.00;7.50;;;;;;;17.74;58.09;101865.13;5032783;28;20428;-46
2022/05/14 10:17:12;;;;;;;15.40;7.10;;;;;;;18.06;58.10;101863.28;5032763;28;20832;-45
2022/05/14 10:19:55;;;;;;;11.67;6.83;;;;;;;18.25;57.44;101871.22;5032561;28;20509;-44
2022/05/14 10:26:44;;;;;;;14.20;6.67;;;;;;;18.16;55.64;101866.28;5032501;28;20843;-47
2022/05/14 10:28:14;;;;;;;11.50;6.60;;;;;;;17.83;55.71;101880.00;5032655;28;20482;-47
2022/05/14 10:30:53;;;;;;;11.23;7.07;;;;;;;17.80;58.96;101888.53;5031767;28;20462;-49
2022/05/14 10:33:26;;;;;;;11.53;7.77;;;;;;;18.14;59.81;101888.13;5032763;28;20494;-48
2022/05/14 10:36:03;;;;;;;21.70;8.83;;;;;;;18.40;60.57;101887.09;5032658;28;20822;-49
2022/05/14 10:38:37;;;;;;;11.23;6.07;;;;;;;18.17;55.81;101886.84;5032478;28;20428;-50
2022/05/14 10:41:08;;;;;;;15.60;8.53;;;;;;;18.30;58.12;101891.34;5031657;28;20992;-48
2022/05/14 10:43:43;;;;;;;13.50;6.83;;;;;;;18.46;56.13;101890.78;5032819;28;20438;-44
2022/05/14 10:46:18;;;;;;;12.87;7.00;;;;;;;18.71;56.00;101892.47;5032722;28;20566;-48
2022/05/14 10:48:53;;;;;;;15.07;7.40;;;;;;;18.77;55.47;101894.28;5032254;28;20558;-50
2022/05/14 10:51:24;;;;;;;18.40;7.97;;;;;;;18.85;56.22;101885.03;5031564;28;20463;-46
2022/05/14 10:53:53;;;;;;;14.30;7.73;;;;;;;18.91;57.15;101894.97;5031851;28;20829;-46
2022/05/14 10:56:26;;;;;;;9.13;5.60;;;;;;;19.17;53.42;101891.16;5031849;28;20474;-46
2022/05/14 10:59:05;;;;;;;6.13;5.53;;;;;;;18.43;51.67;101892.06;5032373;28;20786;-47
2022/05/14 11:01:38;;;;;;;8.90;6.27;;;;;;;17.90;54.84;101905.09;5031611;28;20758;-47
2022/05/14 11:04:16;;;;;;;8.40;5.60;;;;;;;18.05;54.33;101911.03;5032041;28;20434;-50
2022/05/14 11:06:52;;;;;;;16.03;5.97;;;;;;;18.34;54.33;101912.28;5031830;28;20452;-45
2022/05/14 11:09:22;;;;;;;6.87;4.90;;;;;;;18.06;53.64;101914.56;5031521;28;20841;-49
2022/05/14 11:11:58;;;;;;;7.53;4.77;;;;;;;17.52;52.29;101904.22;5031792;28;20454;-46
2022/05/14 11:14:37;;;;;;;6.37;4.80;;;;;;;16.98;55.29;101915.38;5032120;28;20431;-46
2022/05/14 11:17:17;;;;;;;7.50;5.40;;;;;;;17.14;57.58;101917.66;5031493;28;20471;-47
2022/05/14 11:19:45;;;;;;;10.17;5.20;;;;;;;17.59;56.64;101913.16;5031246;28;20469;-47
2022/05/14 11:22:22;;;;;;;4.87;4.40;;;;;;;17.63;56.27;101931.38;5030304;28;20436;-50
2022/05/14 11:24:52;;;;;;;7.23;4.97;;;;;;;17.43;53.94;101932.47;5031782;28;20916;-46
2022/05/14 11:27:29;;;;;;;6.80;4.73;;;;;;;17.05;54.24;101940.47;5031368;28;20456;-46
2022/05/14 11:30:00;;;;;;;9.43;4.80;;;;;;;17.04;56.05;101933.41;5031228;28;20467;-46
2022/05/14 11:32:41;;;;;;;8.50;4.33;;;;;;;17.29;53.06;101938.97;5031610;28;20442;-46
2022/05/14 11:35:09;;;;;;;4.83;3.97;;;;;;;17.55;51.27;101947.00;5031521;28;20439;-48
2022/05/14 11:37:39;;;;;;;10.43;4.63;;;;;;;17.45;51.80;101943.88;5031094;28;20799;-47
2022/05/14 11:40:17;;;;;;;6.67;4.20;;;;;;;18.08;50.39;101936.75;5031247;28;20832;-51
2022/05/14 11:42:47;;;;;;;6.17;4.93;;;;;;;18.29;49.73;101939.13;5031554;28;20432;-47
2022/05/14 11:45:19;;;;;;;8.80;5.40;;;;;;;18.19;50.85;101945.00;5031453;28;21004;-50
2022/05/14 11:48:03;;;;;;;8.60;3.83;;;;;;;18.34;47.83;101941.19;5031368;28;20454;-45